Time;durP1;ratioP1;P1;durP2;ratioP2;P2;SDS_P1;SDS_P2;PMS_P1;PMS_P2;Temp;Humidity;BMP_temperature;BMP_pressure;BME280_temperature;BME280_humidity;BME280_pressure;Samples;Min_cycle;Max_cycle;Signal;HPM_P1;HPM_P2
2024/01/04 00:01:58;;;;;;;0.70;0.63;;;;;;;;;;4991834;28;20463;-86
2024/01/04 00:08:39;;;;;;;0.40;0.40;;;;;;;;;;4991751;28;20474;-86
2024/01/04 00:11:09;;;;;;;0.60;0.50;;;;;;;;;;4977099;28;21507;-88
2024/01/04 00:13:58;;;;;;;1.67;1.00;;;;;;;;;;4988890;28;20479;-86
2024/01/04 00:16:45;;;;;;;1.37;0.77;;;;;;;;;;4992165;28;20479;-89
2024/01/04 00:22:50;;;;;;;1.20;0.70;;;;;;;;;;4990012;28;20562;-87
2024/01/04 00:25:34;;;;;;;0.90;0.60;;;;;;;;;;5002204;28;20466;-87
2024/01/04 00:28:24;;;;;;;1.10;0.50;;;;;;;;;;5006803;28;20464;-86
2024/01/04 00:31:19;;;;;;;0.73;0.70;;;;;;;;;;4987933;28;20478;-87
2024/01/04 00:34:14;;;;;;;1.67;0.90;;;;;;;;;;5013784;28;20517;-86
2024/01/04 00:37:19;;;;;;;0.97;0.90;;;;;;;;;;5026689;23;20453;-87
2024/01/04 00:40:03;;;;;;;;;;;;;;;;;;;;;
2024/01/04 00:46:14;;;;;;;;;;;;;;;;;;;;;
2024/01/04 00:49:34;;;;;;;1.40;0.93;;;;;;;;;;5005639;28;20513;-86
2024/01/04 00:52:30;;;;;;;1.43;0.97;;;;;;;;;;4984329;28;20454;-88
2024/01/04 00:56:03;;;;;;;1.33;0.90;;;;;;;;;;4923093;29;20453;-87
2024/01/04 01:06:14;;;;;;;1.63;0.90;;;;;;;;;;4839343;29;20499;-86
2024/01/04 01:12:48;;;;;;;2.10;0.90;;;;;;;;;;4912472;29;20427;-87
2024/01/04 01:19:25;;;;;;;2.40;1.43;;;;;;;;;;4918630;29;20435;-88
2024/01/04 01:22:27;;;;;;;1.23;0.83;;;;;;;;;;4923065;29;20518;-86
2024/01/04 01:25:27;;;;;;;1.60;0.90;;;;;;;;;;4934086;29;20431;-87
2024/01/04 01:28:09;;;;;;;1.50;1.13;;;;;;;;;;5201449;23;20889;-86
2024/01/04 01:34:57;;;;;;;1.50;1.03;;;;;;;;;;4934343;29;20525;-87
2024/01/04 01:41:45;;;;;;;1.80;0.80;;;;;;;;;;4815965;29;20467;-84
2024/01/04 01:48:16;;;;;;;4.10;0.90;;;;;;;;;;4897842;29;20513;-85
2024/01/04 01:51:27;;;;;;;4.00;1.33;;;;;;;;;;4828306;29;20440;-87
2024/01/04 01:54:22;;;;;;;;;;;;;;;;;;;;;
2024/01/04 02:09:33;;;;;;;1.90;0.80;;;;;;;;;;5003194;28;20442;-86
2024/01/04 03:18:37;;;;;;;;;;;;;;;;;;;;;
2024/01/04 03:28:16;;;;;;;3.03;1.30;;;;;;;;;;5062439;23;20573;-85
2024/01/04 03:35:31;;;;;;;2.57;1.30;;;;;;;;;;5015572;28;20513;-88
2024/01/04 03:38:55;;;;;;;2.60;1.57;;;;;;;;;;5003112;28;20445;-87
2024/01/04 03:45:10;;;;;;;3.37;1.90;;;;;;;;;;5020452;28;20453;-87
2024/01/04 03:51:55;;;;;;;1.63;1.20;;;;;;;;;;5009152;28;20445;-87
2024/01/04 03:58:35;;;;;;;;;;;;;;;;;;;;;
2024/01/04 04:01:56;;;;;;;4.17;1.40;;;;;;;;;;4945159;28;20505;-85
2024/01/04 04:08:54;;;;;;;3.53;1.63;;;;;;;;;;4915479;29;20450;-87
2024/01/04 05:25:57;;;;;;;1.17;0.83;;;;;;;;;;4984603;28;20440;-86
2024/01/04 05:29:02;;;;;;;0.90;0.70;;;;;;;;;;4988559;28;20465;-87
2024/01/04 05:32:11;;;;;;;0.83;0.83;;;;;;;;;;4991324;28;20444;-87
2024/01/04 05:35:12;;;;;;;1.60;1.43;;;;;;;;;;4993847;28;20549;-88
2024/01/04 05:37:58;;;;;;;1.77;1.30;;;;;;;;;;4947711;28;20476;-86
2024/01/04 05:40:40;;;;;;;0.90;0.67;;;;;;;;;;4983993;28;20466;-89
2024/01/04 05:50:00;;;;;;;2.20;0.67;;;;;;;;;;4926725;28;20460;-85
2024/01/04 05:53:12;;;;;;;1.27;0.70;;;;;;;;;;4991899;28;20539;-87
2024/01/04 05:55:50;;;;;;;1.70;0.97;;;;;;;;;;4999592;28;20486;-86
2024/01/04 05:58:44;;;;;;;3.80;0.97;;;;;;;;;;4963707;28;20447;-86
2024/01/04 06:01:36;;;;;;;1.43;1.23;;;;;;;;;;4959464;28;20446;-87
2024/01/04 06:04:27;;;;;;;0.73;0.73;;;;;;;;;;4983607;28;20618;-87
2024/01/04 06:07:27;;;;;;;;;;;;;;;;;;;;;
2024/01/04 06:10:54;;;;;;;1.90;1.37;;;;;;;;;;4982772;28;20518;-86
2024/01/04 06:14:10;;;;;;;0.83;0.80;;;;;;;;;;4967317;28;20638;-87
2024/01/04 06:16:59;;;;;;;1.10;0.90;;;;;;;;;;4988365;28;20558;-87
2024/01/04 06:20:12;;;;;;;0.80;0.80;;;;;;;;;;4921539;28;20511;-88
2024/01/04 06:23:19;;;;;;;2.20;1.00;;;;;;;;;;4993391;28;21227;-88
2024/01/04 06:26:10;;;;;;;3.10;1.10;;;;;;;;;;4989553;28;20485;-88
2024/01/04 06:29:07;;;;;;;1.37;1.30;;;;;;;;;;5002346;28;20485;-85
2024/01/04 06:32:01;;;;;;;1.13;1.03;;;;;;;;;;4990816;28;20846;-86
2024/01/04 06:35:09;;;;;;;1.27;0.90;;;;;;;;;;4992567;28;20833;-86
2024/01/04 06:38:07;;;;;;;1.93;1.40;;;;;;;;;;5000061;28;20498;-87
2024/01/04 06:48:39;;;;;;;1.17;0.97;;;;;;;;;;5356806;23;20515;-89
2024/01/04 06:54:52;;;;;;;3.03;1.30;;;;;;;;;;5000548;28;20490;-86
2024/01/04 06:58:09;;;;;;;5.63;1.10;;;;;;;;;;5001951;28;20510;-86
2024/01/04 07:08:05;;;;;;;0.60;0.60;;;;;;;;;;5019277;28;20451;-87
2024/01/04 07:10:59;;;;;;;1.33;0.97;;;;;;;;;;5011565;28;20453;-88
2024/01/04 07:17:01;;;;;;;0.87;0.80;;;;;;;;;;5009101;28;20477;-87
2024/01/04 07:20:01;;;;;;;1.00;0.80;;;;;;;;;;5006871;28;20429;-86
2024/01/04 07:22:53;;;;;;;0.77;0.77;;;;;;;;;;5014756;28;20438;-86
2024/01/04 07:25:51;;;;;;;1.03;0.63;;;;;;;;;;4992290;28;20439;-84
2024/01/04 07:35:42;;;;;;;1.20;0.87;;;;;;;;;;5033518;28;20484;-86
2024/01/04 07:38:53;;;;;;;0.83;0.83;;;;;;;;;;5015290;28;20509;-88
2024/01/04 07:41:39;;;;;;;3.53;1.40;;;;;;;;;;4980921;28;20466;-86
2024/01/04 07:47:45;;;;;;;1.70;1.10;;;;;;;;;;5002427;28;20833;-87
2024/01/04 07:51:08;;;;;;;1.13;0.93;;;;;;;;;;5006752;28;20513;-88
2024/01/04 07:54:10;;;;;;;2.53;1.13;;;;;;;;;;5006401;28;20486;-87
2024/01/04 07:57:06;;;;;;;;;;;;;;;;;;;;;
2024/01/04 08:03:32;;;;;;;;;;;;;;;;;;;;;
2024/01/04 08:06:34;;;;;;;2.30;1.47;;;;;;;;;;5003229;28;20498;-87
2024/01/04 08:09:38;;;;;;;3.00;1.50;;;;;;;;;;5010867;28;20431;-88
2024/01/04 08:13:02;;;;;;;2.03;1.83;;;;;;;;;;4999554;28;20507;-88
2024/01/04 08:24:55;;;;;;;1.50;1.40;;;;;;;;;;4929167;29;20557;-86
2024/01/04 08:28:03;;;;;;;1.70;1.60;;;;;;;;;;4928767;29;20529;-88
2024/01/04 08:31:16;;;;;;;2.57;1.77;;;;;;;;;;4924183;29;20508;-87
2024/01/04 08:34:21;;;;;;;5.33;2.10;;;;;;;;;;4908610;29;20568;-87
2024/01/04 08:44:17;;;;;;;3.40;1.60;;;;;;;;;;4955866;28;20478;-88
2024/01/04 08:47:40;;;;;;;3.73;2.63;;;;;;;;;;4860796;29;20554;-87
2024/01/04 09:21:30;;;;;;;2.70;1.03;;;;;;;;;;5033015;28;20943;-88
2024/01/04 09:24:20;;;;;;;2.87;1.37;;;;;;;;;;5031467;28;20456;-86
2024/01/04 09:27:23;;;;;;;2.07;1.17;;;;;;;;;;5046598;28;20443;-86
2024/01/04 09:30:34;;;;;;;2.80;1.50;;;;;;;;;;5030423;28;20438;-88
2024/01/04 09:33:15;;;;;;;2.03;1.53;;;;;;;;;;5048060;28;20457;-87
2024/01/04 09:36:10;;;;;;;2.10;1.23;;;;;;;;;;5040153;28;20575;-86
2024/01/04 09:39:17;;;;;;;1.53;1.43;;;;;;;;;;4983380;28;20448;-88
2024/01/04 09:42:33;;;;;;;;;;;;;;;;;;;;;
2024/01/04 09:45:47;;;;;;;2.67;1.20;;;;;;;;;;5181760;23;20560;-85
2024/01/04 09:49:00;;;;;;;1.53;1.30;;;;;;;;;;4934405;28;20425;-88
2024/01/04 09:58:22;;;;;;;2.50;1.10;;;;;;;;;;4905305;29;20452;-88
2024/01/04 10:01:44;;;;;;;2.23;1.20;;;;;;;;;;4907359;29;20496;-85
2024/01/04 10:04:23;;;;;;;1.70;1.17;;;;;;;;;;4892665;29;20457;-86
2024/01/04 10:07:26;;;;;;;2.33;1.40;;;;;;;;;;4895405;29;20520;-87
2024/01/04 10:10:21;;;;;;;4.60;1.60;;;;;;;;;;4911493;29;20491;-86
2024/01/04 10:14:04;;;;;;;3.17;1.50;;;;;;;;;;4911344;29;20471;-84
2024/01/04 10:16:50;;;;;;;1.90;1.40;;;;;;;;;;5031357;23;20531;-87
2024/01/04 10:19:54;;;;;;;4.37;1.50;;;;;;;;;;5042796;28;20451;-84
2024/01/04 10:22:58;;;;;;;1.40;1.30;;;;;;;;;;5062224;28;20512;-86
2024/01/04 10:26:05;;;;;;;2.57;1.27;;;;;;;;;;5001055;28;20551;-84
2024/01/04 10:31:21;;;;;;;1.10;1.07;;;;;;;;;;4091999;26;20469;-85
2024/01/04 10:33:58;;;;;;;3.20;1.20;;;;;;;;;;5050962;28;20481;-84
2024/01/04 10:37:00;;;;;;;1.23;1.13;;;;;;;;;;5048803;28;20468;-86
2024/01/04 10:43:42;;;;;;;1.80;1.00;;;;;;;;;;5049708;28;20445;-86
2024/01/04 10:50:15;;;;;;;2.33;1.20;;;;;;;;;;4948499;28;20438;-87
2024/01/04 10:53:33;;;;;;;4.00;0.90;;;;;;;;;;4849221;29;20442;-85
2024/01/04 11:00:35;;;;;;;5.10;1.47;;;;;;;;;;4825689;29;20463;-85
2024/01/04 11:10:23;;;;;;;2.37;1.13;;;;;;;;;;4829415;29;20450;-84
2024/01/04 11:20:26;;;;;;;;;;;;;;;;;;;;;
2024/01/04 11:23:37;;;;;;;7.10;1.73;;;;;;;;;;4907346;29;20467;-86
2024/01/04 11:26:30;;;;;;;7.00;1.90;;;;;;;;;;4886086;29;21192;-88
2024/01/04 11:33:07;;;;;;;;;;;;;;;;;;;;;
2024/01/04 11:36:07;;;;;;;2.50;1.17;;;;;;;;;;4994225;28;20490;-87
2024/01/04 11:42:22;;;;;;;9.80;2.00;;;;;;;;;;4988458;28;20458;-85
2024/01/04 11:44:58;;;;;;;5.50;2.23;;;;;;;;;;4971622;28;20510;-86
2024/01/04 11:47:58;;;;;;;9.03;2.60;;;;;;;;;;4979231;28;21069;-85
2024/01/04 11:50:51;;;;;;;7.50;1.90;;;;;;;;;;4971509;28;20466;-87
2024/01/04 11:53:30;;;;;;;8.17;1.93;;;;;;;;;;4990349;28;20440;-84
2024/01/04 11:56:18;;;;;;;6.27;1.80;;;;;;;;;;4978370;28;21045;-87
2024/01/04 11:59:22;;;;;;;8.77;1.93;;;;;;;;;;4967461;28;20906;-87
2024/01/04 12:02:19;;;;;;;9.37;2.13;;;;;;;;;;4980594;28;20555;-88
2024/01/04 12:05:02;;;;;;;5.87;2.20;;;;;;;;;;4958625;28;20483;-86
2024/01/04 12:07:55;;;;;;;5.23;1.57;;;;;;;;;;4948253;28;21290;-87
2024/01/04 12:10:47;;;;;;;10.80;2.57;;;;;;;;;;4998693;28;20459;-86
2024/01/04 12:13:21;;;;;;;5.50;1.60;;;;;;;;;;5001878;28;20460;-86
2024/01/04 12:16:18;;;;;;;5.13;2.57;;;;;;;;;;4942293;28;20497;-87
2024/01/04 12:19:17;;;;;;;8.17;2.23;;;;;;;;;;4941164;28;20503;-86
2024/01/04 12:22:01;;;;;;;10.03;2.40;;;;;;;;;;4936459;28;20464;-86
2024/01/04 12:24:42;;;;;;;11.30;2.03;;;;;;;;;;4986670;28;20495;-85
2024/01/04 12:27:29;;;;;;;6.07;2.47;;;;;;;;;;4973150;28;20517;-85
2024/01/04 12:30:39;;;;;;;6.33;2.00;;;;;;;;;;4979335;28;20456;-86
2024/01/04 12:33:38;;;;;;;8.87;1.87;;;;;;;;;;4979097;28;20521;-85
2024/01/04 12:39:25;;;;;;;7.90;2.00;;;;;;;;;;4991805;28;20513;-86
2024/01/04 12:42:36;;;;;;;6.40;2.20;;;;;;;;;;4919836;28;20515;-87
2024/01/04 12:45:45;;;;;;;4.00;2.17;;;;;;;;;;4995544;28;20442;-85
2024/01/04 12:48:40;;;;;;;5.10;1.90;;;;;;;;;;4977260;28;20767;-86
2024/01/04 12:51:54;;;;;;;4.37;1.77;;;;;;;;;;4959009;28;20443;-86
2024/01/04 12:57:38;;;;;;;6.17;1.90;;;;;;;;;;5013410;28;20477;-85
2024/01/04 13:00:55;;;;;;;11.03;3.07;;;;;;;;;;5026177;28;20537;-88
2024/01/04 13:04:19;;;;;;;;;;;;;;;;;;;;;
2024/01/04 13:10:49;;;;;;;6.30;1.90;;;;;;;;;;5023667;28;20421;-87
2024/01/04 13:13:33;;;;;;;4.47;1.90;;;;;;;;;;5001326;28;20467;-86
2024/01/04 13:59:37;;;;;;;6.80;1.60;;;;;;;;;;1136856;26;21683;-87
2024/01/04 14:02:23;;;;;;;11.17;2.20;;;;;;;;;;5068585;28;20451;-87
2024/01/04 14:04:59;;;;;;;7.30;1.83;;;;;;;;;;5072302;28;20423;-84
2024/01/04 14:07:36;;;;;;;4.57;1.93;;;;;;;;;;5070979;28;20537;-85
2024/01/04 14:10:10;;;;;;;2.87;2.00;;;;;;;;;;5061994;28;20461;-88
2024/01/04 14:12:50;;;;;;;4.20;1.37;;;;;;;;;;5076937;28;20443;-85
2024/01/04 14:15:31;;;;;;;3.83;1.40;;;;;;;;;;5102163;28;20503;-86
2024/01/04 14:18:01;;;;;;;2.50;1.20;;;;;;;;;;5084866;28;20496;-85
2024/01/04 14:20:45;;;;;;;3.97;1.40;;;;;;;;;;5096911;28;20435;-85
2024/01/04 14:23:17;;;;;;;3.00;1.37;;;;;;;;;;5082735;28;20443;-87
2024/01/04 14:26:08;;;;;;;3.93;1.93;;;;;;;;;;5095752;28;20443;-86
2024/01/04 14:29:23;;;;;;;8.93;2.33;;;;;;;;;;5081341;28;20424;-87
2024/01/04 14:32:01;;;;;;;7.57;2.10;;;;;;;;;;5089105;28;20489;-86
2024/01/04 14:37:43;;;;;;;6.83;1.77;;;;;;;;;;5082436;28;20474;-86
2024/01/04 14:40:25;;;;;;;7.17;2.30;;;;;;;;;;5066642;28;20520;-84
2024/01/04 14:43:11;;;;;;;5.63;1.43;;;;;;;;;;5063158;28;20455;-84
2024/01/04 14:45:46;;;;;;;6.90;2.03;;;;;;;;;;5068829;28;20611;-85
2024/01/04 14:48:30;;;;;;;6.40;1.67;;;;;;;;;;5080909;28;20466;-86
2024/01/04 14:51:09;;;;;;;4.60;1.60;;;;;;;;;;5069564;28;20466;-87
2024/01/04 14:53:47;;;;;;;6.10;2.30;;;;;;;;;;5065596;28;20495;-86
2024/01/04 14:56:39;;;;;;;;;;;;;;;;;;;;;
2024/01/04 14:59:33;;;;;;;;;;;;;;;;;;;;;
2024/01/04 15:02:14;;;;;;;5.17;1.90;;;;;;;;;;5087628;28;20476;-86
2024/01/04 15:04:57;;;;;;;6.57;2.73;;;;;;;;;;5065376;28;20454;-86
2024/01/04 15:07:33;;;;;;;8.20;2.10;;;;;;;;;;5066392;28;20482;-85
2024/01/04 15:10:49;;;;;;;;;;;;;;;;;;;;;
2024/01/04 15:13:20;;;;;;;4.50;1.60;;;;;;;;;;5082560;28;20455;-89
2024/01/04 15:16:06;;;;;;;4.67;1.70;;;;;;;;;;5065704;28;20486;-87
2024/01/04 15:18:34;;;;;;;3.50;1.73;;;;;;;;;;5080274;28;20466;-87
2024/01/04 15:21:01;;;;;;;3.63;1.40;;;;;;;;;;5067793;28;20458;-87
2024/01/04 15:23:51;;;;;;;3.83;1.17;;;;;;;;;;5064346;28;20463;-87
2024/01/04 15:26:34;;;;;;;;;;;;;;;;;;;;;
2024/01/04 15:29:15;;;;;;;4.30;1.57;;;;;;;;;;5040443;28;20451;-86
2024/01/04 15:32:15;;;;;;;7.40;2.37;;;;;;;;;;5061133;28;20447;-85
2024/01/04 15:35:10;;;;;;;7.33;2.10;;;;;;;;;;5068686;28;20479;-85
2024/01/04 15:37:54;;;;;;;12.73;1.90;;;;;;;;;;5065648;28;20489;-86
2024/01/04 15:40:33;;;;;;;8.57;2.50;;;;;;;;;;5077830;28;20471;-85
2024/01/04 15:43:05;;;;;;;7.53;2.10;;;;;;;;;;5086336;28;20490;-85
2024/01/04 15:45:48;;;;;;;7.50;1.80;;;;;;;;;;5082859;28;20454;-86
2024/01/04 15:48:29;;;;;;;4.67;2.20;;;;;;;;;;5065498;28;20450;-85
2024/01/04 15:51:16;;;;;;;4.57;2.63;;;;;;;;;;5069130;28;20463;-88
2024/01/04 15:54:12;;;;;;;3.77;1.90;;;;;;;;;;5063732;28;20459;-86
2024/01/04 15:56:54;;;;;;;7.33;2.20;;;;;;;;;;5063784;28;20497;-85
2024/01/04 15:59:36;;;;;;;6.93;2.07;;;;;;;;;;5062053;28;20442;-88
2024/01/04 16:02:17;;;;;;;5.70;2.63;;;;;;;;;;5065593;28;20459;-86
2024/01/04 16:04:57;;;;;;;6.27;1.93;;;;;;;;;;5080600;28;20470;-84
2024/01/04 16:08:01;;;;;;;10.80;3.40;;;;;;;;;;5067139;28;20493;-87
2024/01/04 16:10:38;;;;;;;7.60;2.30;;;;;;;;;;5086052;28;20596;-88
2024/01/04 16:13:06;;;;;;;8.30;2.17;;;;;;;;;;5067045;28;20469;-87
2024/01/04 16:15:41;;;;;;;5.60;1.90;;;;;;;;;;5065145;28;21130;-87
2024/01/04 16:18:29;;;;;;;4.13;1.57;;;;;;;;;;5064140;28;21006;-86
2024/01/04 16:21:10;;;;;;;4.63;1.87;;;;;;;;;;5072984;28;20435;-85
2024/01/04 16:23:53;;;;;;;6.03;2.63;;;;;;;;;;5095630;28;20601;-88
2024/01/04 16:26:37;;;;;;;5.20;1.87;;;;;;;;;;5094122;28;22014;-87
2024/01/04 16:29:21;;;;;;;6.07;2.23;;;;;;;;;;5045202;28;20970;-87
2024/01/04 16:32:10;;;;;;;4.93;1.83;;;;;;;;;;5067029;28;20433;-85
2024/01/04 16:38:01;;;;;;;8.77;2.20;;;;;;;;;;5048389;28;20489;-86
2024/01/04 16:40:49;;;;;;;3.10;1.30;;;;;;;;;;5087159;28;20473;-86
2024/01/04 16:43:34;;;;;;;3.03;1.80;;;;;;;;;;5070215;28;21120;-84
2024/01/04 16:46:27;;;;;;;5.07;1.40;;;;;;;;;;5064668;28;20472;-88
2024/01/04 16:49:06;;;;;;;4.17;1.90;;;;;;;;;;5097165;28;20466;-88
2024/01/04 16:52:08;;;;;;;12.17;3.07;;;;;;;;;;5082503;28;20475;-85
2024/01/04 16:55:26;;;;;;;4.87;2.10;;;;;;;;;;5079773;28;20449;-89
2024/01/04 16:58:09;;;;;;;7.83;3.07;;;;;;;;;;5075954;28;20497;-85
2024/01/04 17:05:07;;;;;;;;;;;;;;;;;;;;;
2024/01/04 17:08:31;;;;;;;;;;;;;;;;;;;;;
2024/01/04 17:11:14;;;;;;;;;;;;;;;;;;;;;
2024/01/04 17:14:05;;;;;;;5.30;1.90;;;;;;;;;;5071878;28;20474;-85
2024/01/04 17:17:04;;;;;;;7.40;2.10;;;;;;;;;;5054099;28;20468;-84
2024/01/04 17:23:03;;;;;;;6.17;2.20;;;;;;;;;;5043135;28;20442;-86
2024/01/04 17:25:39;;;;;;;3.50;1.87;;;;;;;;;;5074176;28;20452;-86
2024/01/04 17:28:21;;;;;;;9.63;2.60;;;;;;;;;;5060772;28;21607;-87
2024/01/04 17:30:58;;;;;;;7.00;2.80;;;;;;;;;;5062489;28;20446;-88
2024/01/04 17:33:49;;;;;;;;;;;;;;;;;;;;;
2024/01/04 17:36:42;;;;;;;7.00;1.73;;;;;;;;;;5081293;28;20496;-88
2024/01/04 17:39:17;;;;;;;7.03;2.23;;;;;;;;;;5058156;28;20478;-85
2024/01/04 17:41:55;;;;;;;3.33;2.10;;;;;;;;;;5053850;28;20627;-87
2024/01/04 17:44:39;;;;;;;9.90;3.97;;;;;;;;;;5054701;28;20486;-87
2024/01/04 17:47:09;;;;;;;8.93;2.80;;;;;;;;;;5058821;28;20471;-86
2024/01/04 17:52:44;;;;;;;5.07;2.10;;;;;;;;;;5065774;28;20449;-85
2024/01/04 17:55:25;;;;;;;7.10;2.50;;;;;;;;;;5053629;28;20493;-88
2024/01/04 17:58:09;;;;;;;8.00;2.43;;;;;;;;;;5049644;28;20447;-88
2024/01/04 18:00:41;;;;;;;4.90;2.23;;;;;;;;;;5070524;28;20673;-89
2024/01/04 18:10:12;;;;;;;4.13;2.27;;;;;;;;;;5070051;28;20434;-89
2024/01/04 18:13:04;;;;;;;8.30;3.30;;;;;;;;;;5067545;28;20461;-86
2024/01/04 18:15:43;;;;;;;5.63;3.23;;;;;;;;;;5053694;28;20889;-84
2024/01/04 18:18:27;;;;;;;6.13;2.40;;;;;;;;;;5054826;28;21794;-87
2024/01/04 18:21:26;;;;;;;4.40;2.30;;;;;;;;;;4982345;28;20462;-87
2024/01/04 18:24:17;;;;;;;8.93;3.47;;;;;;;;;;5000428;28;20459;-85
2024/01/04 18:26:52;;;;;;;7.63;2.90;;;;;;;;;;4985459;28;20545;-88
2024/01/04 18:29:37;;;;;;;6.67;2.47;;;;;;;;;;4977826;28;20459;-88
2024/01/04 18:32:07;;;;;;;8.23;2.90;;;;;;;;;;4967851;28;20472;-86
2024/01/04 18:34:46;;;;;;;6.50;2.80;;;;;;;;;;4972165;28;20464;-83
2024/01/04 18:37:42;;;;;;;6.00;2.20;;;;;;;;;;4985465;28;20566;-87
2024/01/04 18:40:54;;;;;;;4.97;2.07;;;;;;;;;;4997417;28;20989;-87
2024/01/04 18:43:41;;;;;;;6.93;2.03;;;;;;;;;;5028196;28;20456;-88
2024/01/04 18:46:15;;;;;;;5.73;2.60;;;;;;;;;;5054827;28;20480;-86
2024/01/04 18:48:53;;;;;;;5.70;3.47;;;;;;;;;;5069427;28;20551;-87
2024/01/04 18:51:29;;;;;;;8.90;3.13;;;;;;;;;;5059536;28;20439;-87
2024/01/04 18:54:10;;;;;;;6.93;2.80;;;;;;;;;;5050974;28;20456;-85
2024/01/04 18:56:54;;;;;;;7.80;2.73;;;;;;;;;;5051634;28;20598;-87
2024/01/04 18:59:34;;;;;;;5.50;2.20;;;;;;;;;;5069642;28;20464;-89
2024/01/04 19:02:32;;;;;;;8.70;3.23;;;;;;;;;;5055208;28;20452;-86
2024/01/04 19:05:09;;;;;;;8.03;2.30;;;;;;;;;;5051762;28;20495;-86
2024/01/04 19:07:59;;;;;;;8.80;2.40;;;;;;;;;;5056833;28;20475;-85
2024/01/04 19:10:36;;;;;;;4.67;2.70;;;;;;;;;;5050969;28;20476;-88
2024/01/04 19:13:12;;;;;;;5.30;2.10;;;;;;;;;;5053457;28;20454;-85
2024/01/04 19:15:48;;;;;;;10.13;2.77;;;;;;;;;;5053150;28;20462;-86
2024/01/04 19:18:36;;;;;;;8.70;2.30;;;;;;;;;;5052022;28;20454;-87
2024/01/04 19:21:52;;;;;;;3.37;2.00;;;;;;;;;;5055028;28;21635;-86
2024/01/04 19:24:39;;;;;;;8.47;3.00;;;;;;;;;;5027326;28;20447;-85
2024/01/04 19:27:08;;;;;;;4.73;3.07;;;;;;;;;;5054950;28;20460;-85
2024/01/04 19:29:57;;;;;;;4.03;2.80;;;;;;;;;;5056127;28;20451;-88
2024/01/04 19:32:42;;;;;;;5.70;3.03;;;;;;;;;;5053832;28;20476;-88
2024/01/04 19:35:28;;;;;;;4.80;2.80;;;;;;;;;;5050090;28;21028;-86
2024/01/04 19:38:15;;;;;;;7.17;2.37;;;;;;;;;;4976049;28;20445;-86
2024/01/04 19:40:55;;;;;;;4.50;2.40;;;;;;;;;;4989591;28;21026;-90
2024/01/04 19:43:32;;;;;;;8.83;2.80;;;;;;;;;;4979580;28;20687;-85
2024/01/04 19:46:13;;;;;;;5.63;2.67;;;;;;;;;;4980834;28;21057;-84
2024/01/04 19:48:51;;;;;;;6.20;3.00;;;;;;;;;;4996371;28;20451;-86
2024/01/04 19:51:25;;;;;;;7.10;2.97;;;;;;;;;;4968219;28;20490;-87
2024/01/04 19:54:06;;;;;;;5.20;2.63;;;;;;;;;;4968117;28;20462;-85
2024/01/04 19:56:38;;;;;;;7.43;3.30;;;;;;;;;;4969297;28;20483;-86
2024/01/04 19:59:10;;;;;;;5.60;2.70;;;;;;;;;;4989232;28;20502;-90
2024/01/04 20:01:43;;;;;;;5.93;1.97;;;;;;;;;;4972409;28;21101;-88
2024/01/04 20:04:22;;;;;;;4.33;2.50;;;;;;;;;;4975728;28;20455;-85
2024/01/04 20:07:08;;;;;;;7.27;2.80;;;;;;;;;;4976734;28;20479;-87
2024/01/04 20:09:40;;;;;;;3.53;2.33;;;;;;;;;;4981534;28;20523;-87
2024/01/04 20:12:12;;;;;;;7.13;2.00;;;;;;;;;;4993130;28;20511;-85
2024/01/04 20:14:43;;;;;;;6.77;2.90;;;;;;;;;;5010491;28;20478;-87
2024/01/04 20:17:17;;;;;;;9.27;3.40;;;;;;;;;;5057936;28;20510;-86
2024/01/04 20:19:49;;;;;;;8.83;2.77;;;;;;;;;;5057911;28;20456;-88
2024/01/04 20:22:24;;;;;;;8.37;2.57;;;;;;;;;;5065186;28;20446;-87
2024/01/04 20:25:07;;;;;;;3.57;2.70;;;;;;;;;;5086536;28;20509;-86
2024/01/04 20:27:44;;;;;;;5.70;2.43;;;;;;;;;;5065063;28;20466;-87
2024/01/04 20:30:19;;;;;;;9.23;3.53;;;;;;;;;;5049780;28;21139;-88
2024/01/04 20:32:54;;;;;;;5.90;2.73;;;;;;;;;;5068831;28;20504;-86
2024/01/04 20:35:35;;;;;;;4.53;2.27;;;;;;;;;;5062739;28;20474;-88
2024/01/04 20:38:38;;;;;;;7.90;2.77;;;;;;;;;;5057573;28;20443;-84
2024/01/04 20:41:25;;;;;;;4.83;2.10;;;;;;;;;;5058154;28;20478;-87
2024/01/04 20:44:08;;;;;;;7.20;2.80;;;;;;;;;;5067384;28;20503;-88
2024/01/04 20:47:18;;;;;;;;;;;;;;;;;;;;;
2024/01/04 20:50:03;;;;;;;5.60;2.33;;;;;;;;;;5078922;28;20440;-87
2024/01/04 20:52:44;;;;;;;4.10;2.57;;;;;;;;;;5066663;28;20440;-84
2024/01/04 21:01:22;;;;;;;5.33;2.60;;;;;;;;;;5116987;28;20490;-86
2024/01/04 21:15:17;;;;;;;6.40;2.17;;;;;;;;;;5099427;23;20501;-87
2024/01/04 21:18:06;;;;;;;;;;;;;;;;;;;;;
2024/01/04 21:21:01;;;;;;;3.50;2.10;;;;;;;;;;4983635;28;20519;-88
2024/01/04 21:24:25;;;;;;;3.80;2.27;;;;;;;;;;4977227;28;20462;-87
2024/01/04 21:30:30;;;;;;;7.40;2.30;;;;;;;;;;4993405;28;20499;-85
2024/01/04 21:33:17;;;;;;;6.90;2.50;;;;;;;;;;4977842;28;20449;-89
2024/01/04 21:36:24;;;;;;;9.27;2.97;;;;;;;;;;4991992;28;20446;-88
2024/01/04 21:39:03;;;;;;;7.43;3.10;;;;;;;;;;4992860;28;20487;-88
2024/01/04 21:41:57;;;;;;;5.40;2.43;;;;;;;;;;4990649;28;20463;-86
2024/01/04 21:44:50;;;;;;;2.50;2.10;;;;;;;;;;4986060;28;20454;-87
2024/01/04 21:47:46;;;;;;;7.23;2.97;;;;;;;;;;4991376;28;20456;-87
2024/01/04 21:50:28;;;;;;;5.47;2.93;;;;;;;;;;5024744;28;20727;-85
2024/01/04 21:53:19;;;;;;;14.90;5.03;;;;;;;;;;5054665;28;20436;-86
2024/01/04 21:56:00;;;;;;;7.97;3.10;;;;;;;;;;5046084;28;20441;-87
2024/01/04 21:58:36;;;;;;;5.03;2.20;;;;;;;;;;5064326;28;20574;-85
2024/01/04 22:01:39;;;;;;;4.57;2.20;;;;;;;;;;5045281;28;20468;-85
2024/01/04 22:04:25;;;;;;;5.10;1.73;;;;;;;;;;5042703;28;20706;-87
2024/01/04 22:07:27;;;;;;;7.83;4.00;;;;;;;;;;5037404;28;20481;-86
2024/01/04 22:10:32;;;;;;;8.60;3.03;;;;;;;;;;5049467;28;20544;-88
2024/01/04 22:13:32;;;;;;;3.90;1.77;;;;;;;;;;5053826;28;20469;-87
2024/01/04 22:16:14;;;;;;;4.43;1.77;;;;;;;;;;5034229;28;20498;-86
2024/01/04 22:23:13;;;;;;;10.77;2.93;;;;;;;;;;4999679;28;20455;-86
2024/01/04 22:26:13;;;;;;;5.13;1.70;;;;;;;;;;5049482;28;20507;-88
2024/01/04 22:31:47;;;;;;;1.87;1.70;;;;;;;;;;3030062;26;20599;-86
2024/01/04 22:34:25;;;;;;;3.23;2.30;;;;;;;;;;5035068;28;20505;-87
2024/01/04 22:37:10;;;;;;;4.80;2.40;;;;;;;;;;5040629;28;20520;-87
2024/01/04 22:40:01;;;;;;;4.00;1.80;;;;;;;;;;5033933;28;20449;-87
2024/01/04 22:43:09;;;;;;;4.97;2.43;;;;;;;;;;5037949;28;20450;-88
2024/01/04 22:46:08;;;;;;;4.67;1.90;;;;;;;;;;4970785;28;21217;-87
2024/01/04 22:48:52;;;;;;;3.83;1.93;;;;;;;;;;5028012;28;20470;-90
2024/01/04 22:55:18;;;;;;;7.40;2.23;;;;;;;;;;4982199;28;20423;-86
2024/01/04 22:58:00;;;;;;;7.60;2.50;;;;;;;;;;5063443;23;20591;-86
2024/01/04 23:00:40;;;;;;;6.87;2.33;;;;;;;;;;5041869;28;20514;-85
2024/01/04 23:03:44;;;;;;;8.97;2.13;;;;;;;;;;5040433;28;20441;-85
2024/01/04 23:06:29;;;;;;;5.47;2.20;;;;;;;;;;5044091;28;20494;-89
2024/01/04 23:09:02;;;;;;;13.20;2.63;;;;;;;;;;5055179;28;20454;-87
2024/01/04 23:11:46;;;;;;;4.80;1.90;;;;;;;;;;5058067;28;20475;-88
2024/01/04 23:14:20;;;;;;;4.47;2.37;;;;;;;;;;5053939;28;20445;-86
2024/01/04 23:17:11;;;;;;;4.50;2.53;;;;;;;;;;5045397;28;20475;-87
2024/01/04 23:19:47;;;;;;;6.50;1.93;;;;;;;;;;5046395;28;20452;-86
2024/01/04 23:22:37;;;;;;;6.20;2.53;;;;;;;;;;5031110;28;21187;-87
2024/01/04 23:29:14;;;;;;;9.80;3.40;;;;;;;;;;4989007;28;20440;-87
2024/01/04 23:32:02;;;;;;;4.53;1.80;;;;;;;;;;4978221;28;20475;-86
2024/01/04 23:34:37;;;;;;;6.63;2.60;;;;;;;;;;5048839;28;20457;-84
2024/01/04 23:37:24;;;;;;;5.43;2.57;;;;;;;;;;5043801;28;20453;-85
2024/01/04 23:40:18;;;;;;;5.60;2.13;;;;;;;;;;5050088;28;20438;-86
2024/01/04 23:43:21;;;;;;;4.90;1.90;;;;;;;;;;5056504;28;20461;-85
2024/01/04 23:46:05;;;;;;;10.53;2.33;;;;;;;;;;5049770;28;20453;-85
2024/01/04 23:48:45;;;;;;;7.60;2.53;;;;;;;;;;5037308;28;20453;-86
2024/01/04 23:51:22;;;;;;;8.50;2.57;;;;;;;;;;5044313;28;21105;-85
2024/01/04 23:56:30;;;;;;;14.40;3.60;;;;;;;;;;5064509;28;20465;-87
